Time;durP1;ratioP1;P1;durP2;ratioP2;P2;SDS_P1;SDS_P2;PMS_P1;PMS_P2;Temp;Humidity;BMP_temperature;BMP_pressure;BME280_temperature;BME280_humidity;BME280_pressure;Samples;Min_cycle;Max_cycle;Signal;HPM_P1;HPM_P2
2022/05/15 00:00:58;;;;;;;6.90;3.60;;;;;;;;;;4951082;29;20387;-75
2022/05/15 00:03:37;;;;;;;7.53;3.45;;;;;;;;;;4949758;29;20059;-75
2022/05/15 00:06:03;;;;;;;5.55;3.92;;;;;;;;;;4933776;29;20050;-75
2022/05/15 00:08:31;;;;;;;4.47;3.10;;;;;;;;;;4950713;29;20074;-75
2022/05/15 00:10:57;;;;;;;8.55;4.75;;;;;;;;;;4916562;29;20566;-77
2022/05/15 00:13:23;;;;;;;4.50;3.33;;;;;;;;;;4944195;29;20238;-74
2022/05/15 00:15:49;;;;;;;7.15;3.10;;;;;;;;;;4939017;29;20058;-74
2022/05/15 00:18:16;;;;;;;7.65;3.10;;;;;;;;;;4923832;29;20044;-74
2022/05/15 00:20:42;;;;;;;5.60;3.25;;;;;;;;;;4939886;29;20050;-76
2022/05/15 00:23:08;;;;;;;3.95;2.95;;;;;;;;;;4943753;29;20556;-75
2022/05/15 00:25:34;;;;;;;5.80;3.05;;;;;;;;;;4944588;29;20109;-74
2022/05/15 00:28:00;;;;;;;7.18;3.33;;;;;;;;;;4923242;29;20091;-74
2022/05/15 00:30:26;;;;;;;4.22;3.60;;;;;;;;;;4938654;28;20051;-74
2022/05/15 00:32:52;;;;;;;5.82;4.35;;;;;;;;;;4926703;29;20063;-75
2022/05/15 00:35:18;;;;;;;7.30;3.00;;;;;;;;;;4932325;29;20482;-74
2022/05/15 00:37:44;;;;;;;9.48;3.72;;;;;;;;;;4944054;29;20067;-75
2022/05/15 00:40:09;;;;;;;5.63;3.38;;;;;;;;;;4941983;29;20046;-74
2022/05/15 00:42:36;;;;;;;7.45;3.38;;;;;;;;;;4926260;29;20119;-76
2022/05/15 00:45:03;;;;;;;9.73;3.30;;;;;;;;;;4926825;29;20055;-76
2022/05/15 00:47:29;;;;;;;6.63;3.80;;;;;;;;;;4930844;29;20045;-75
2022/05/15 00:49:55;;;;;;;9.95;4.47;;;;;;;;;;4943143;29;20130;-74
2022/05/15 00:52:22;;;;;;;6.30;5.70;;;;;;;;;;4942702;29;20138;-75
2022/05/15 00:55:20;;;;;;;6.50;4.50;;;;;;;;;;4926951;29;20047;-74
2022/05/15 00:57:47;;;;;;;5.32;3.92;;;;;;;;;;4903649;29;20067;-73
2022/05/15 01:00:15;;;;;;;4.85;4.25;;;;;;;;;;4927624;29;20513;-74
2022/05/15 01:02:42;;;;;;;5.70;4.30;;;;;;;;;;4936821;29;20043;-74
2022/05/15 01:05:09;;;;;;;9.82;4.43;;;;;;;;;;4936807;29;20055;-74
2022/05/15 01:07:35;;;;;;;8.75;4.00;;;;;;;;;;4936479;29;20428;-76
2022/05/15 01:10:04;;;;;;;4.43;3.88;;;;;;;;;;4936946;29;20059;-73
2022/05/15 01:12:33;;;;;;;9.73;3.10;;;;;;;;;;4905377;29;20043;-74
2022/05/15 01:14:59;;;;;;;4.35;3.08;;;;;;;;;;4921187;29;20522;-74
2022/05/15 01:17:26;;;;;;;6.03;3.47;;;;;;;;;;4936807;29;20042;-76
2022/05/15 01:19:59;;;;;;;4.18;3.75;;;;;;;;;;4953358;29;20035;-75
2022/05/15 01:22:25;;;;;;;8.32;3.65;;;;;;;;;;4953710;29;20043;-74
2022/05/15 01:24:51;;;;;;;3.05;2.83;;;;;;;;;;4936344;29;20043;-75
2022/05/15 01:27:17;;;;;;;4.13;3.17;;;;;;;;;;4953967;29;20062;-75
2022/05/15 01:29:45;;;;;;;7.22;3.50;;;;;;;;;;4936387;29;20242;-75
2022/05/15 01:32:12;;;;;;;9.55;2.92;;;;;;;;;;4936778;29;20039;-76
2022/05/15 01:34:39;;;;;;;4.82;3.22;;;;;;;;;;4936309;29;20121;-75
2022/05/15 01:37:05;;;;;;;3.63;3.33;;;;;;;;;;4936939;29;20043;-75
2022/05/15 01:39:32;;;;;;;6.88;3.40;;;;;;;;;;4905828;29;20039;-75
2022/05/15 01:41:58;;;;;;;7.20;3.50;;;;;;;;;;4936349;28;20071;-76
2022/05/15 01:44:24;;;;;;;3.42;3.15;;;;;;;;;;4954359;29;20035;-75
2022/05/15 01:46:50;;;;;;;10.70;3.50;;;;;;;;;;4937518;29;20073;-75
2022/05/15 01:49:18;;;;;;;5.15;3.40;;;;;;;;;;4938646;29;20055;-74
2022/05/15 01:51:44;;;;;;;4.10;3.47;;;;;;;;;;4937715;29;20074;-74
2022/05/15 01:54:11;;;;;;;5.57;3.30;;;;;;;;;;4938150;29;20381;-75
2022/05/15 01:56:37;;;;;;;8.45;3.10;;;;;;;;;;4920680;29;20146;-74
2022/05/15 01:59:03;;;;;;;3.38;3.17;;;;;;;;;;4937821;29;20087;-75
2022/05/15 02:01:29;;;;;;;3.90;3.10;;;;;;;;;;4921747;29;20217;-75
2022/05/15 02:03:55;;;;;;;6.22;2.72;;;;;;;;;;4924198;29;20122;-75
2022/05/15 02:06:21;;;;;;;7.90;3.20;;;;;;;;;;4941359;29;20047;-74
2022/05/15 02:08:48;;;;;;;3.53;2.90;;;;;;;;;;4926973;29;20188;-75
2022/05/15 02:11:14;;;;;;;3.55;2.70;;;;;;;;;;4939562;29;20065;-74
2022/05/15 02:13:40;;;;;;;8.20;2.88;;;;;;;;;;4954459;29;20130;-74
2022/05/15 02:16:06;;;;;;;4.18;2.60;;;;;;;;;;4945791;29;20221;-76
2022/05/15 02:18:32;;;;;;;4.90;2.60;;;;;;;;;;4919364;29;20051;-75
2022/05/15 02:20:58;;;;;;;4.50;2.50;;;;;;;;;;4935665;29;20109;-75
2022/05/15 02:23:26;;;;;;;2.85;2.65;;;;;;;;;;4952662;29;20280;-74
2022/05/15 02:25:52;;;;;;;3.13;2.83;;;;;;;;;;4935666;29;20054;-74
2022/05/15 02:28:19;;;;;;;6.10;3.00;;;;;;;;;;4935672;29;20526;-75
2022/05/15 02:30:47;;;;;;;4.35;2.50;;;;;;;;;;4935334;29;20047;-75
2022/05/15 02:33:13;;;;;;;3.00;2.70;;;;;;;;;;4951345;29;20048;-76
2022/05/15 02:35:38;;;;;;;3.45;2.53;;;;;;;;;;4934754;29;20047;-75
2022/05/15 02:38:05;;;;;;;3.20;2.90;;;;;;;;;;4935010;29;20474;-75
2022/05/15 02:40:31;;;;;;;3.30;3.00;;;;;;;;;;4935405;29;20047;-73
2022/05/15 02:42:57;;;;;;;4.15;2.97;;;;;;;;;;4935057;29;20122;-75
2022/05/15 02:45:23;;;;;;;6.43;3.70;;;;;;;;;;4928923;29;20119;-72
2022/05/15 02:47:50;;;;;;;4.82;3.65;;;;;;;;;;4931828;29;20098;-75
2022/05/15 02:53:00;;;;;;;4.22;2.75;;;;;;;;;;4916201;29;20048;-73
2022/05/15 02:55:26;;;;;;;3.92;3.15;;;;;;;;;;4922393;29;20055;-75
2022/05/15 02:57:52;;;;;;;3.40;3.10;;;;;;;;;;4933211;29;20052;-74
2022/05/15 03:00:20;;;;;;;4.25;3.05;;;;;;;;;;4915999;29;20044;-74
2022/05/15 03:02:46;;;;;;;5.57;2.97;;;;;;;;;;4932748;29;20051;-75
2022/05/15 03:05:12;;;;;;;3.10;2.83;;;;;;;;;;4932764;29;20079;-74
2022/05/15 03:07:39;;;;;;;5.38;3.20;;;;;;;;;;4915843;29;20506;-74
2022/05/15 03:10:06;;;;;;;3.53;2.67;;;;;;;;;;4931468;29;20107;-74
2022/05/15 03:12:31;;;;;;;4.45;2.60;;;;;;;;;;4931810;29;20417;-74
2022/05/15 03:14:58;;;;;;;7.10;2.92;;;;;;;;;;4932554;29;20047;-75
2022/05/15 03:17:24;;;;;;;5.68;2.97;;;;;;;;;;4931503;29;20044;-74
2022/05/15 03:19:51;;;;;;;5.88;3.10;;;;;;;;;;4931245;29;20035;-74
2022/05/15 03:22:17;;;;;;;4.13;2.80;;;;;;;;;;4931478;29;20114;-75
2022/05/15 03:24:43;;;;;;;5.93;2.70;;;;;;;;;;4932131;29;20039;-75
2022/05/15 03:27:09;;;;;;;5.47;2.30;;;;;;;;;;4915575;29;20055;-74
2022/05/15 03:29:35;;;;;;;4.03;2.50;;;;;;;;;;4931096;29;20052;-75
2022/05/15 03:32:01;;;;;;;3.88;2.30;;;;;;;;;;4932474;29;20053;-75
2022/05/15 03:34:26;;;;;;;2.75;2.42;;;;;;;;;;4932449;29;20048;-74
2022/05/15 03:36:53;;;;;;;3.63;2.47;;;;;;;;;;4931259;29;20058;-74
2022/05/15 03:39:20;;;;;;;6.18;2.60;;;;;;;;;;4930910;29;20043;-74
2022/05/15 03:41:47;;;;;;;4.43;2.60;;;;;;;;;;4931995;29;20130;-76
2022/05/15 03:44:12;;;;;;;4.03;2.70;;;;;;;;;;4932171;29;20054;-76
2022/05/15 03:46:39;;;;;;;3.22;2.92;;;;;;;;;;4930214;29;20043;-76
2022/05/15 03:49:05;;;;;;;3.25;2.50;;;;;;;;;;4933046;29;20525;-74
2022/05/15 03:51:31;;;;;;;3.50;2.45;;;;;;;;;;4930775;29;20052;-75
